Time;durP1;ratioP1;P1;durP2;ratioP2;P2;SDS_P1;SDS_P2;PMS_P1;PMS_P2;Temp;Humidity;BMP_temperature;BMP_pressure;BME280_temperature;BME280_humidity;BME280_pressure;Samples;Min_cycle;Max_cycle;Signal;HPM_P1;HPM_P2
2023/05/20 00:01:14;;;;;;;7.20;6.50;;;;;;;11.96;100.00;96576.69;7394775;19;20400;-75
2023/05/20 00:03:41;;;;;;;6.97;6.40;;;;;;;11.97;100.00;96571.06;7397567;19;20429;-75
2023/05/20 00:06:08;;;;;;;9.10;8.30;;;;;;;11.99;100.00;96582.09;7397013;19;20408;-76
2023/05/20 00:08:35;;;;;;;6.33;5.73;;;;;;;12.08;100.00;96587.31;7397132;19;20361;-76
2023/05/20 00:11:02;;;;;;;6.63;6.07;;;;;;;12.10;100.00;96601.00;7396007;19;20430;-77
2023/05/20 00:13:29;;;;;;;7.40;6.70;;;;;;;11.89;100.00;96579.91;7398559;19;20385;-75
2023/05/20 00:15:56;;;;;;;9.50;7.50;;;;;;;12.10;100.00;96598.38;7396129;19;20380;-76
2023/05/20 00:18:22;;;;;;;9.03;6.97;;;;;;;12.07;100.00;96591.84;7396790;19;20935;-76
2023/05/20 00:20:49;;;;;;;8.10;7.30;;;;;;;11.98;100.00;96574.47;7394565;19;20419;-75
2023/05/20 00:23:16;;;;;;;7.70;6.90;;;;;;;11.90;100.00;96556.81;7397175;19;20389;-76
2023/05/20 00:25:43;;;;;;;7.43;6.83;;;;;;;11.85;100.00;96565.72;7396885;19;20349;-75
2023/05/20 00:28:10;;;;;;;6.03;5.53;;;;;;;12.14;100.00;96591.28;7396279;19;20386;-76
2023/05/20 00:30:41;;;;;;;8.17;7.37;;;;;;;12.11;100.00;96592.72;7394975;19;20436;-75
2023/05/20 00:33:08;;;;;;;7.97;6.97;;;;;;;11.94;100.00;96569.06;7397424;19;20957;-76
2023/05/20 00:35:35;;;;;;;6.90;6.20;;;;;;;11.83;100.00;96558.13;7395299;19;20452;-76
2023/05/20 00:38:02;;;;;;;7.53;6.70;;;;;;;11.83;100.00;96552.81;7397110;19;20374;-76
2023/05/20 00:40:29;;;;;;;8.07;7.27;;;;;;;11.73;100.00;96541.84;7395887;19;20381;-76
2023/05/20 00:42:56;;;;;;;8.20;6.30;;;;;;;11.76;100.00;96557.88;7396660;19;20365;-75
2023/05/20 00:45:23;;;;;;;7.10;6.40;;;;;;;11.70;100.00;96548.56;7395096;19;20381;-75
2023/05/20 00:47:51;;;;;;;8.03;6.67;;;;;;;11.88;100.00;96574.91;7393369;19;20337;-75
2023/05/20 00:50:18;;;;;;;7.20;6.50;;;;;;;11.82;100.00;96569.03;7395179;19;20515;-75
2023/05/20 00:52:47;;;;;;;8.33;7.43;;;;;;;11.64;100.00;96534.00;7398793;19;20351;-75
2023/05/20 00:55:14;;;;;;;6.63;5.93;;;;;;;11.88;100.00;96569.59;7394898;19;20831;-75
2023/05/20 00:57:41;;;;;;;8.17;7.43;;;;;;;11.88;100.00;96566.94;7398232;19;20406;-76
2023/05/20 01:00:09;;;;;;;8.83;7.47;;;;;;;11.76;100.00;96536.69;7394987;19;20400;-76
2023/05/20 01:02:36;;;;;;;8.17;7.10;;;;;;;11.94;100.00;96571.72;7397809;19;20404;-76
2023/05/20 01:05:04;;;;;;;6.50;5.90;;;;;;;11.80;100.00;96561.44;7397149;19;20921;-76
2023/05/20 01:07:31;;;;;;;11.43;7.80;;;;;;;11.75;100.00;96550.22;7396868;19;20360;-76
2023/05/20 01:09:59;;;;;;;8.17;7.47;;;;;;;11.66;100.00;96542.38;7396684;19;20349;-75
2023/05/20 01:12:54;;;;;;;7.43;6.33;;;;;;;11.37;100.00;96518.69;7396390;19;20356;-76
2023/05/20 01:15:25;;;;;;;7.43;6.80;;;;;;;11.65;100.00;96556.72;7395865;19;20404;-75
2023/05/20 01:18:00;;;;;;;8.33;7.00;;;;;;;11.71;100.00;96554.63;7396419;19;20923;-76
2023/05/20 01:20:31;;;;;;;8.20;7.40;;;;;;;11.76;100.00;96565.81;7395321;19;20956;-76
2023/05/20 01:22:58;;;;;;;8.30;7.47;;;;;;;11.76;100.00;96559.75;7395406;19;20409;-76
2023/05/20 01:25:25;;;;;;;8.13;6.83;;;;;;;11.60;100.00;96550.84;7396024;19;20376;-76
2023/05/20 01:27:56;;;;;;;7.67;6.97;;;;;;;11.53;100.00;96564.63;7394460;19;20444;-76
2023/05/20 01:30:32;;;;;;;7.33;6.60;;;;;;;11.48;100.00;96523.22;7392492;19;20397;-74
2023/05/20 01:33:03;;;;;;;7.23;6.60;;;;;;;11.55;100.00;96546.53;7394897;19;20401;-74
2023/05/20 01:35:31;;;;;;;9.03;7.67;;;;;;;11.40;100.00;96521.44;7393379;19;20363;-74
2023/05/20 01:37:59;;;;;;;8.10;7.30;;;;;;;11.58;100.00;96550.41;7395358;19;20392;-74
2023/05/20 01:40:27;;;;;;;8.43;7.60;;;;;;;11.32;100.00;96518.88;7393576;19;20416;-74
2023/05/20 01:42:55;;;;;;;8.97;8.07;;;;;;;11.30;100.00;96508.63;7396267;19;20365;-76
2023/05/20 01:45:23;;;;;;;8.73;7.70;;;;;;;11.38;100.00;96534.25;7393166;19;20392;-73
2023/05/20 01:47:50;;;;;;;9.37;8.47;;;;;;;11.32;100.00;96534.75;7394300;19;20401;-73
2023/05/20 01:50:18;;;;;;;8.63;7.63;;;;;;;11.21;100.00;96518.50;7392032;19;20424;-73
2023/05/20 01:52:44;;;;;;;9.30;8.50;;;;;;;11.29;100.00;96538.06;7394718;19;20460;-74
2023/05/20 01:55:12;;;;;;;10.20;9.20;;;;;;;11.19;100.00;96524.13;7392992;19;20820;-74
2023/05/20 01:57:39;;;;;;;10.03;8.90;;;;;;;11.34;100.00;96545.78;7394087;19;20376;-74
2023/05/20 02:00:07;;;;;;;11.50;8.60;;;;;;;11.34;100.00;96538.63;7389998;19;20393;-74
2023/05/20 02:02:39;;;;;;;9.10;8.23;;;;;;;11.22;100.00;96515.56;7396660;19;20353;-74
2023/05/20 02:05:09;;;;;;;9.93;8.93;;;;;;;11.28;100.00;96529.34;7393198;19;20384;-74
2023/05/20 02:07:36;;;;;;;8.80;7.70;;;;;;;11.26;100.00;96528.91;7392152;19;20368;-74
2023/05/20 02:10:04;;;;;;;9.60;8.73;;;;;;;11.10;100.00;96509.44;7393274;19;20862;-74
2023/05/20 02:12:31;;;;;;;9.70;8.70;;;;;;;11.27;100.00;96522.50;7392496;19;20392;-74
2023/05/20 02:14:57;;;;;;;9.20;8.30;;;;;;;11.11;100.00;96511.75;7392952;19;20372;-74
2023/05/20 02:17:25;;;;;;;10.73;9.27;;;;;;;11.18;100.00;96525.22;7391704;19;20414;-74
2023/05/20 02:19:52;;;;;;;9.80;8.90;;;;;;;10.97;100.00;96500.66;7392997;19;20397;-74
2023/05/20 02:22:19;;;;;;;9.13;8.23;;;;;;;10.84;100.00;96464.69;7400087;19;20695;-74
2023/05/20 02:24:46;;;;;;;8.87;8.07;;;;;;;11.06;100.00;96498.69;7402246;19;20365;-74
2023/05/20 02:27:14;;;;;;;10.37;9.27;;;;;;;10.95;100.00;96487.75;7399120;19;20413;-74
2023/05/20 02:29:43;;;;;;;11.33;9.27;;;;;;;11.04;100.00;96506.19;7400578;19;20750;-74
2023/05/20 02:32:11;;;;;;;10.47;9.50;;;;;;;10.83;100.00;96479.78;7396443;19;20440;-74
2023/05/20 02:34:38;;;;;;;10.43;9.17;;;;;;;10.96;100.00;96488.53;7400823;19;20380;-74
2023/05/20 02:37:05;;;;;;;10.40;9.30;;;;;;;11.07;100.00;96510.84;7399191;19;20392;-74
2023/05/20 02:39:32;;;;;;;11.33;9.40;;;;;;;10.91;100.00;96491.38;7400541;19;20403;-74
2023/05/20 02:41:59;;;;;;;10.90;9.80;;;;;;;11.01;100.00;96522.72;7396566;19;20461;-74
2023/05/20 02:44:26;;;;;;;10.37;9.23;;;;;;;10.87;100.00;96501.06;7400438;19;20381;-74
2023/05/20 02:46:53;;;;;;;10.57;9.57;;;;;;;11.06;100.00;96519.09;7398560;19;20892;-74
2023/05/20 02:49:20;;;;;;;11.80;9.70;;;;;;;10.79;100.00;96491.31;7401144;19;20435;-74
2023/05/20 02:51:47;;;;;;;11.50;10.30;;;;;;;11.04;100.00;96531.88;7398050;19;20509;-74
2023/05/20 02:54:15;;;;;;;14.30;9.27;;;;;;;10.87;100.00;96516.91;7401418;19;20394;-74
2023/05/20 02:56:42;;;;;;;11.20;9.20;;;;;;;10.87;100.00;96503.69;7399642;19;20405;-74
2023/05/20 02:59:09;;;;;;;11.57;10.43;;;;;;;10.84;100.00;96512.28;7400715;19;20397;-74
2023/05/20 03:01:36;;;;;;;11.33;10.20;;;;;;;10.79;100.00;96510.59;7397592;19;20404;-74
2023/05/20 03:04:03;;;;;;;11.20;10.17;;;;;;;10.91;100.00;96529.16;7400665;19;20380;-74
2023/05/20 03:06:33;;;;;;;13.43;10.10;;;;;;;10.91;100.00;96525.75;7398785;19;20714;-74
2023/05/20 03:09:00;;;;;;;10.30;9.23;;;;;;;10.69;100.00;96500.41;7401891;19;20343;-74
2023/05/20 03:11:28;;;;;;;11.90;10.60;;;;;;;10.83;100.00;96516.03;7397125;19;20436;-74
2023/05/20 03:13:55;;;;;;;10.50;9.47;;;;;;;10.85;100.00;96533.13;7400561;19;20466;-74
2023/05/20 03:16:24;;;;;;;11.50;10.50;;;;;;;10.76;100.00;96505.94;7398466;19;20372;-74
2023/05/20 03:18:51;;;;;;;13.03;11.73;;;;;;;10.89;100.00;96541.19;7402176;19;20356;-74
2023/05/20 03:21:18;;;;;;;11.27;10.13;;;;;;;10.75;100.00;96514.22;7397508;19;20440;-74
2023/05/20 03:23:48;;;;;;;12.70;11.50;;;;;;;10.87;100.00;96527.50;7397340;19;20369;-74
2023/05/20 03:26:15;;;;;;;12.47;10.80;;;;;;;10.86;100.00;96524.09;7398884;19;20365;-74
2023/05/20 03:28:43;;;;;;;11.57;10.47;;;;;;;10.89;100.00;96531.38;7397331;19;20468;-74
2023/05/20 03:31:10;;;;;;;13.80;12.37;;;;;;;10.87;100.00;96530.16;7397250;19;20439;-74
2023/05/20 03:33:37;;;;;;;13.10;11.80;;;;;;;10.90;100.00;96532.91;7394930;19;20372;-74
2023/05/20 03:36:05;;;;;;;12.00;10.80;;;;;;;10.89;100.00;96538.53;7398305;19;20932;-74
2023/05/20 03:38:33;;;;;;;13.03;11.43;;;;;;;10.95;100.00;96532.75;7397213;19;20375;-74
2023/05/20 03:41:00;;;;;;;13.93;12.53;;;;;;;10.91;100.00;96526.53;7397391;19;20424;-73
2023/05/20 03:43:27;;;;;;;14.40;12.43;;;;;;;10.82;100.00;96511.84;7397077;19;20372;-73
2023/05/20 03:45:55;;;;;;;15.37;13.43;;;;;;;10.92;100.00;96532.59;7398559;19;20407;-73
2023/05/20 03:48:22;;;;;;;15.03;13.30;;;;;;;10.96;100.00;96533.50;7396981;19;20419;-73
2023/05/20 03:50:49;;;;;;;12.20;11.00;;;;;;;10.95;100.00;96527.44;7397372;19;20420;-73
2023/05/20 03:53:18;;;;;;;12.67;11.47;;;;;;;10.84;100.00;96520.22;7396958;19;20400;-74
2023/05/20 03:55:45;;;;;;;16.60;12.53;;;;;;;11.05;100.00;96538.72;7398531;19;20379;-74
2023/05/20 03:58:14;;;;;;;13.53;12.13;;;;;;;11.04;100.00;96534.53;7394245;19;20365;-74
2023/05/20 04:00:41;;;;;;;13.70;11.20;;;;;;;11.03;100.00;96528.47;7397391;19;20431;-73
2023/05/20 04:03:09;;;;;;;13.03;11.73;;;;;;;10.98;100.00;96528.66;7396397;19;20368;-73
2023/05/20 04:05:36;;;;;;;14.47;13.07;;;;;;;10.98;100.00;96520.72;7398408;19;20419;-73
2023/05/20 04:08:12;;;;;;;14.67;13.13;;;;;;;11.10;100.00;96549.13;7396923;19;20922;-74
2023/05/20 04:10:42;;;;;;;14.03;12.53;;;;;;;11.14;100.00;96558.72;7397945;19;20435;-74
2023/05/20 04:13:10;;;;;;;12.20;11.00;;;;;;;11.03;100.00;96548.84;7395632;19;20725;-74
2023/05/20 04:15:37;;;;;;;12.73;11.63;;;;;;;11.00;100.00;96528.34;7397301;19;20452;-74
2023/05/20 04:18:05;;;;;;;13.73;12.33;;;;;;;10.84;100.00;96507.75;7398403;19;20435;-74
2023/05/20 04:20:32;;;;;;;16.50;13.33;;;;;;;11.14;100.00;96550.78;7394663;19;20425;-73
2023/05/20 04:22:59;;;;;;;15.87;12.60;;;;;;;11.07;100.00;96536.53;7396598;19;20393;-73
2023/05/20 04:25:26;;;;;;;11.87;10.60;;;;;;;11.04;100.00;96516.78;7395266;19;20359;-73
2023/05/20 04:27:54;;;;;;;13.93;12.10;;;;;;;11.12;100.00;96528.41;7396307;19;20379;-73
2023/05/20 04:30:21;;;;;;;14.37;12.87;;;;;;;11.08;100.00;96517.66;7396040;19;20381;-73
2023/05/20 04:32:49;;;;;;;14.60;12.33;;;;;;;11.25;100.00;96538.72;7395125;19;20376;-73
2023/05/20 04:35:17;;;;;;;15.33;13.80;;;;;;;11.03;100.00;96503.88;7394981;19;20368;-73
2023/05/20 04:37:51;;;;;;;16.00;12.43;;;;;;;11.30;100.00;96537.72;7395226;19;20420;-73
2023/05/20 04:40:19;;;;;;;15.27;13.67;;;;;;;11.14;100.00;96523.56;7394800;19;20740;-73
2023/05/20 04:42:46;;;;;;;13.30;12.00;;;;;;;11.17;100.00;96513.09;7396152;19;20779;-73
2023/05/20 04:45:14;;;;;;;15.23;13.73;;;;;;;11.30;100.00;96539.59;7394693;19;20388;-73
2023/05/20 04:47:43;;;;;;;14.27;12.80;;;;;;;11.40;100.00;96539.22;7396783;19;20378;-73
2023/05/20 04:50:11;;;;;;;13.90;12.60;;;;;;;11.32;100.00;96548.75;7394979;19;20377;-72
2023/05/20 04:52:44;;;;;;;15.53;13.07;;;;;;;11.32;100.00;96532.09;7395620;19;20411;-72
2023/05/20 04:55:12;;;;;;;14.47;13.00;;;;;;;11.30;100.00;96548.31;7395581;19;20408;-73
2023/05/20 04:57:40;;;;;;;24.10;14.70;;;;;;;11.38;100.00;96544.06;7397363;19;20365;-72
2023/05/20 05:00:12;;;;;;;14.87;13.47;;;;;;;11.39;100.00;96537.66;7395026;19;20371;-72
2023/05/20 05:02:39;;;;;;;14.00;12.60;;;;;;;11.34;100.00;96530.69;7397136;19;20380;-73
2023/05/20 05:05:07;;;;;;;14.20;12.80;;;;;;;11.45;100.00;96533.69;7395017;19;21060;-73
2023/05/20 05:07:34;;;;;;;13.37;11.73;;;;;;;11.52;100.00;96531.31;7394210;19;20364;-73
2023/05/20 05:10:02;;;;;;;16.43;13.10;;;;;;;11.46;100.00;96535.25;7394715;19;20377;-73
2023/05/20 05:12:30;;;;;;;15.13;13.53;;;;;;;11.46;100.00;96537.88;7395311;19;20911;-72
2023/05/20 05:14:58;;;;;;;16.93;14.67;;;;;;;11.33;100.00;96509.84;7395272;19;20403;-73
2023/05/20 05:17:27;;;;;;;15.53;13.90;;;;;;;11.57;100.00;96533.75;7393749;19;20361;-73
2023/05/20 05:19:56;;;;;;;14.30;12.90;;;;;;;11.77;100.00;96534.78;7394977;19;20372;-73
2023/05/20 05:22:24;;;;;;;15.57;13.00;;;;;;;12.01;100.00;96547.31;7393364;19;20937;-73
2023/05/20 05:24:51;;;;;;;16.50;13.43;;;;;;;12.09;100.00;96535.84;7395791;19;20723;-72
2023/05/20 05:27:19;;;;;;;14.47;13.07;;;;;;;12.00;100.00;96516.63;7394102;19;20422;-72
2023/05/20 05:29:46;;;;;;;16.17;14.57;;;;;;;12.19;100.00;96532.78;7395531;19;20383;-73
2023/05/20 05:32:13;;;;;;;16.40;14.73;;;;;;;12.34;100.00;96541.94;7397824;19;20425;-74
2023/05/20 05:34:40;;;;;;;14.87;13.37;;;;;;;12.11;100.00;96488.59;7430891;19;20381;-75
2023/05/20 05:37:07;;;;;;;15.17;13.57;;;;;;;12.44;100.00;96536.19;7429511;19;20409;-73
2023/05/20 05:39:36;;;;;;;15.40;13.23;;;;;;;12.46;100.00;96528.69;7425287;19;20381;-73
2023/05/20 05:42:04;;;;;;;14.70;13.20;;;;;;;12.26;100.00;96540.16;7392251;19;20474;-73
2023/05/20 05:44:32;;;;;;;16.33;14.67;;;;;;;12.33;100.00;96527.91;7395509;19;20393;-73
2023/05/20 05:46:59;;;;;;;16.60;14.57;;;;;;;12.25;100.00;96507.56;7394707;19;20769;-73
2023/05/20 05:49:26;;;;;;;14.60;13.20;;;;;;;12.43;100.00;96503.59;7395202;19;20404;-73
2023/05/20 05:51:54;;;;;;;16.23;14.60;;;;;;;12.61;100.00;96503.34;7392155;19;20444;-73
2023/05/20 05:54:22;;;;;;;14.60;13.20;;;;;;;12.56;100.00;96469.88;7395045;19;20384;-73
2023/05/20 05:56:50;;;;;;;17.30;14.63;;;;;;;12.91;100.00;96515.22;7399017;19;20373;-74
2023/05/20 05:59:18;;;;;;;14.80;13.40;;;;;;;13.07;100.00;96519.81;7402759;19;20739;-74
2023/05/20 06:01:45;;;;;;;17.20;14.97;;;;;;;13.15;100.00;96513.59;7398436;19;20996;-75
2023/05/20 06:04:13;;;;;;;16.10;13.60;;;;;;;13.55;100.00;96526.84;7401953;19;20916;-74
2023/05/20 06:06:40;;;;;;;15.33;13.73;;;;;;;13.37;100.00;96515.75;7400794;19;20940;-74
2023/05/20 06:09:07;;;;;;;15.33;13.70;;;;;;;13.66;100.00;96527.91;7402976;19;20361;-74
2023/05/20 06:11:35;;;;;;;20.13;14.90;;;;;;;13.39;100.00;96486.97;7399057;19;20497;-74
2023/05/20 06:14:02;;;;;;;16.40;14.80;;;;;;;13.35;100.00;96523.28;7402626;19;20613;-74
2023/05/20 06:16:29;;;;;;;15.50;13.90;;;;;;;13.65;100.00;96520.28;7401112;19;20372;-74
2023/05/20 06:18:58;;;;;;;15.40;13.80;;;;;;;13.59;100.00;96495.81;7399543;19;20380;-74
2023/05/20 06:21:31;;;;;;;16.03;13.67;;;;;;;13.98;100.00;96526.03;7399172;19;20940;-75
2023/05/20 06:23:58;;;;;;;13.33;12.00;;;;;;;14.30;100.00;96507.44;7399620;19;20404;-74
2023/05/20 06:26:25;;;;;;;14.00;12.60;;;;;;;14.46;100.00;96530.25;7401384;19;20479;-75
2023/05/20 06:28:52;;;;;;;15.50;13.90;;;;;;;14.28;100.00;96518.38;7399693;19;20383;-75
2023/05/20 06:31:20;;;;;;;16.77;13.77;;;;;;;14.61;100.00;96493.31;7399482;19;20438;-74
2023/05/20 06:33:47;;;;;;;14.90;13.37;;;;;;;14.45;100.00;96512.75;7397166;19;20905;-74
2023/05/20 06:36:16;;;;;;;12.80;11.67;;;;;;;14.62;100.00;96508.94;7400699;19;20380;-74
2023/05/20 06:38:43;;;;;;;17.13;15.33;;;;;;;14.52;100.00;96509.47;7399155;19;20384;-75
2023/05/20 06:41:12;;;;;;;13.87;12.50;;;;;;;14.07;100.00;96504.59;7399465;19;21153;-74
2023/05/20 06:43:39;;;;;;;14.70;13.20;;;;;;;14.41;100.00;96511.06;7399244;19;20889;-74
2023/05/20 06:46:24;;;;;;;14.43;12.97;;;;;;;14.76;100.00;96493.25;7401966;19;20427;-75
2023/05/20 06:49:00;;;;;;;14.93;13.20;;;;;;;14.17;100.00;96488.91;7399936;19;20360;-74
2023/05/20 06:51:27;;;;;;;15.70;12.97;;;;;;;14.24;100.00;96511.44;7396929;19;20437;-74
2023/05/20 06:53:54;;;;;;;15.60;12.93;;;;;;;13.99;100.00;96497.56;7397696;19;20512;-75
2023/05/20 06:56:22;;;;;;;15.83;14.33;;;;;;;13.99;100.00;96498.34;7398643;19;20448;-75
2023/05/20 06:58:49;;;;;;;13.43;12.13;;;;;;;14.44;100.00;96502.44;7400551;19;20372;-74
2023/05/20 07:01:17;;;;;;;14.70;13.17;;;;;;;14.32;100.00;96513.94;7396834;19;20424;-74
2023/05/20 07:03:45;;;;;;;17.63;13.23;;;;;;;14.15;100.00;96517.69;7399599;19;20393;-74
2023/05/20 07:06:12;;;;;;;14.87;13.47;;;;;;;14.12;100.00;96499.00;7398092;19;20372;-75
2023/05/20 07:08:40;;;;;;;13.93;12.53;;;;;;;14.49;100.00;96513.59;7399694;19;20392;-75
2023/05/20 07:11:07;;;;;;;13.20;11.90;;;;;;;14.42;100.00;96499.31;7396666;19;20444;-74
2023/05/20 07:13:34;;;;;;;13.93;12.53;;;;;;;15.00;100.00;96507.44;7397839;19;20935;-75
2023/05/20 07:16:01;;;;;;;14.63;13.13;;;;;;;15.00;100.00;96489.56;7398205;19;20372;-74
2023/05/20 07:18:28;;;;;;;14.63;13.13;;;;;;;15.22;100.00;96503.28;7399821;19;20387;-75
2023/05/20 07:20:56;;;;;;;14.30;12.80;;;;;;;15.28;100.00;96512.53;7396778;19;20784;-75
2023/05/20 07:23:45;;;;;;;14.83;13.50;;;;;;;15.34;100.00;96495.91;7397073;19;20409;-74
2023/05/20 07:26:12;;;;;;;15.30;13.70;;;;;;;15.32;100.00;96502.72;7400320;19;20382;-74
2023/05/20 07:28:40;;;;;;;13.50;12.20;;;;;;;15.10;100.00;96490.13;7397524;19;20372;-75
2023/05/20 07:31:07;;;;;;;15.70;14.07;;;;;;;15.25;100.00;96507.94;7394234;19;20424;-75
2023/05/20 07:33:40;;;;;;;15.40;12.77;;;;;;;15.03;100.00;96494.19;7396001;19;20384;-75
2023/05/20 07:36:08;;;;;;;14.20;12.80;;;;;;;15.03;100.00;96480.09;7398645;19;20901;-75
2023/05/20 07:38:38;;;;;;;17.77;13.87;;;;;;;14.94;100.00;96451.00;7397819;19;20576;-74
2023/05/20 07:41:11;;;;;;;16.07;13.97;;;;;;;15.12;100.00;96509.19;7397616;19;20413;-74
2023/05/20 07:43:38;;;;;;;13.43;12.23;;;;;;;15.24;100.00;96506.38;7397445;19;20740;-74
2023/05/20 07:46:05;;;;;;;14.57;13.13;;;;;;;15.94;100.00;96496.25;7398650;19;20400;-74
2023/05/20 07:48:32;;;;;;;12.87;11.50;;;;;;;16.00;100.00;96487.94;7396999;19;21028;-75
2023/05/20 07:51:00;;;;;;;13.30;11.90;;;;;;;16.10;100.00;96496.09;7397348;19;20953;-74
2023/05/20 07:53:27;;;;;;;13.77;12.03;;;;;;;16.02;100.00;96483.78;7395821;19;20379;-75
2023/05/20 07:55:55;;;;;;;12.57;11.37;;;;;;;16.15;100.00;96482.44;7398340;19;20768;-75
2023/05/20 07:58:26;;;;;;;13.50;11.10;;;;;;;16.10;100.00;96501.44;7397501;19;20794;-74
2023/05/20 08:00:53;;;;;;;13.47;12.20;;;;;;;15.91;100.00;96475.63;7398017;19;20781;-75
2023/05/20 08:03:21;;;;;;;14.63;12.97;;;;;;;16.37;100.00;96491.56;7396982;19;20389;-74
2023/05/20 08:05:57;;;;;;;14.10;12.80;;;;;;;16.09;100.00;96499.13;7395958;19;20420;-75
2023/05/20 08:08:25;;;;;;;13.83;12.33;;;;;;;15.68;100.00;96514.84;7397465;19;20398;-74
2023/05/20 08:10:57;;;;;;;13.20;11.93;;;;;;;15.72;100.00;96507.66;7394718;19;20991;-75
2023/05/20 08:13:25;;;;;;;13.97;12.77;;;;;;;16.16;100.00;96475.22;7396340;19;20405;-75
2023/05/20 08:15:53;;;;;;;13.00;11.80;;;;;;;16.56;100.00;96509.38;7396073;19;20388;-75
2023/05/20 08:18:21;;;;;;;15.00;13.50;;;;;;;16.19;100.00;96504.66;7395688;19;20381;-75
2023/05/20 08:20:48;;;;;;;13.97;12.70;;;;;;;15.31;100.00;96506.50;7396363;19;20796;-74
2023/05/20 08:23:15;;;;;;;13.73;12.17;;;;;;;15.66;100.00;96491.19;7397400;19;20404;-74
2023/05/20 08:25:45;;;;;;;15.40;13.97;;;;;;;15.63;100.00;96491.16;7396023;19;20397;-75
2023/05/20 08:28:13;;;;;;;16.67;12.77;;;;;;;16.08;100.00;96511.69;7397113;19;20464;-74
2023/05/20 08:30:40;;;;;;;15.60;14.00;;;;;;;15.98;100.00;96484.84;7394900;19;20960;-75
2023/05/20 08:33:07;;;;;;;11.83;10.83;;;;;;;15.93;100.00;96473.38;7396262;19;20369;-74
2023/05/20 08:35:36;;;;;;;16.80;14.43;;;;;;;15.63;100.00;96485.81;7395722;19;20385;-75
2023/05/20 08:38:03;;;;;;;14.87;13.53;;;;;;;15.91;100.00;96438.28;7396998;19;20359;-75
2023/05/20 08:40:30;;;;;;;13.50;12.10;;;;;;;16.32;100.00;96478.53;7394926;19;20434;-74
2023/05/20 08:42:58;;;;;;;13.30;12.10;;;;;;;16.38;100.00;96481.66;7396773;19;20737;-75
2023/05/20 08:45:27;;;;;;;14.30;12.87;;;;;;;16.60;100.00;96496.84;7395694;19;20372;-75
2023/05/20 08:48:00;;;;;;;14.63;13.13;;;;;;;16.26;100.00;96488.72;7396350;19;20378;-74
2023/05/20 08:50:27;;;;;;;13.30;12.00;;;;;;;16.34;100.00;96492.28;7394094;19;20476;-74
2023/05/20 08:52:54;;;;;;;14.40;12.93;;;;;;;16.17;100.00;96493.56;7395774;19;20410;-75
2023/05/20 08:55:47;;;;;;;14.50;13.00;;;;;;;16.30;100.00;96480.78;7395069;19;20372;-75
2023/05/20 08:58:15;;;;;;;12.33;11.13;;;;;;;16.74;100.00;96488.28;7393542;19;20754;-74
2023/05/20 09:00:42;;;;;;;13.73;12.13;;;;;;;16.77;100.00;96469.63;7394688;19;20456;-75
2023/05/20 09:03:09;;;;;;;14.00;12.70;;;;;;;16.51;100.00;96489.09;7393588;19;20369;-74
2023/05/20 09:05:36;;;;;;;14.10;12.67;;;;;;;17.04;100.00;96482.94;7393637;19;20869;-75
2023/05/20 09:08:06;;;;;;;17.13;14.30;;;;;;;16.49;100.00;96466.56;7396172;19;20377;-74
2023/05/20 09:10:35;;;;;;;16.40;13.03;;;;;;;17.22;100.00;96497.25;7394907;19;20428;-75
2023/05/20 09:13:03;;;;;;;12.93;11.50;;;;;;;17.27;100.00;96490.84;7393352;19;20402;-75
2023/05/20 09:15:31;;;;;;;14.70;13.40;;;;;;;16.83;100.00;96480.78;7395151;19;20373;-74
2023/05/20 09:18:03;;;;;;;12.97;11.77;;;;;;;16.48;100.00;96465.78;7395534;19;20353;-75
2023/05/20 09:20:33;;;;;;;15.73;13.67;;;;;;;16.24;100.00;96469.63;7395085;19;20384;-75
2023/05/20 09:23:01;;;;;;;14.13;12.70;;;;;;;17.08;100.00;96494.41;7394303;19;20393;-75
2023/05/20 09:25:28;;;;;;;14.33;12.93;;;;;;;16.92;100.00;96494.63;7393104;19;20380;-75
2023/05/20 09:27:56;;;;;;;14.07;12.77;;;;;;;16.19;100.00;96488.63;7391335;19;20398;-75
2023/05/20 09:30:23;;;;;;;15.17;13.97;;;;;;;16.17;100.00;96490.13;7394539;19;20397;-74
2023/05/20 09:32:55;;;;;;;16.30;14.63;;;;;;;16.20;100.00;96481.41;7400487;19;20384;-75
2023/05/20 09:35:23;;;;;;;14.33;13.03;;;;;;;16.03;100.00;96487.25;7400249;19;20345;-75
2023/05/20 09:37:57;;;;;;;15.10;13.70;;;;;;;16.37;100.00;96496.13;7401685;19;20407;-75
2023/05/20 09:40:26;;;;;;;15.47;13.70;;;;;;;16.62;100.00;96496.47;7400047;19;20423;-75
2023/05/20 09:43:01;;;;;;;11.50;10.30;;;;;;;17.27;100.00;96504.19;7401949;19;20767;-75
2023/05/20 09:45:29;;;;;;;13.70;12.40;;;;;;;16.62;100.00;96507.16;7401022;19;20900;-75
2023/05/20 09:47:56;;;;;;;16.47;11.83;;;;;;;17.13;100.00;96484.19;7403772;19;20707;-75
2023/05/20 09:50:24;;;;;;;12.53;11.40;;;;;;;17.38;100.00;96486.38;7399928;19;20775;-75
2023/05/20 09:52:52;;;;;;;14.77;12.80;;;;;;;16.94;100.00;96508.38;7403199;19;20343;-75
2023/05/20 09:55:21;;;;;;;12.77;11.67;;;;;;;17.16;100.00;96501.41;7400442;19;20998;-75
2023/05/20 09:57:48;;;;;;;16.33;13.40;;;;;;;17.35;100.00;96485.19;7404053;19;20352;-74
2023/05/20 10:00:18;;;;;;;12.57;11.47;;;;;;;17.67;100.00;96474.06;7399853;19;20398;-75
2023/05/20 10:02:48;;;;;;;14.60;12.27;;;;;;;17.44;100.00;96474.97;7398947;19;20388;-75
2023/05/20 10:05:26;;;;;;;12.80;11.60;;;;;;;17.05;100.00;96471.88;7402102;19;20352;-74
2023/05/20 10:08:04;;;;;;;13.90;12.60;;;;;;;17.23;100.00;96461.41;7399603;19;20797;-75
2023/05/20 10:10:34;;;;;;;19.23;12.80;;;;;;;17.25;100.00;96464.47;7401107;19;20392;-75
2023/05/20 10:13:12;;;;;;;13.63;12.23;;;;;;;16.79;100.00;96454.00;7399144;19;20431;-75
2023/05/20 10:16:17;;;;;;;14.20;13.10;;;;;;;16.67;100.00;96472.13;7401659;19;20895;-74
2023/05/20 10:19:18;;;;;;;14.43;13.03;;;;;;;16.96;100.00;96474.06;7402575;19;20357;-75
2023/05/20 10:22:05;;;;;;;13.83;11.73;;;;;;;17.40;100.00;96442.09;7400091;19;20701;-75
2023/05/20 10:24:42;;;;;;;12.87;11.80;;;;;;;18.23;100.00;96473.75;7399685;19;20389;-75
2023/05/20 10:27:14;;;;;;;13.33;12.13;;;;;;;18.70;100.00;96458.78;7398608;19;20369;-74
2023/05/20 10:29:50;;;;;;;12.57;11.37;;;;;;;18.74;100.00;96464.16;7400026;19;20373;-74
2023/05/20 10:32:28;;;;;;;13.13;11.90;;;;;;;18.77;100.00;96466.84;7395923;19;21006;-74
2023/05/20 10:35:07;;;;;;;12.07;10.87;;;;;;;18.03;100.00;96448.41;7397984;19;20376;-74
2023/05/20 10:37:46;;;;;;;13.53;12.20;;;;;;;18.70;100.00;96461.47;7399640;19;20917;-74
2023/05/20 10:40:16;;;;;;;12.27;11.17;;;;;;;18.73;100.00;96455.34;7397565;19;20364;-74
2023/05/20 10:42:44;;;;;;;11.20;10.23;;;;;;;18.84;100.00;96458.84;7399872;19;21006;-74
2023/05/20 10:45:23;;;;;;;11.10;10.10;;;;;;;18.99;100.00;96438.22;7398256;19;20481;-74
2023/05/20 10:47:55;;;;;;;10.90;9.80;;;;;;;19.39;100.00;96468.59;7400271;19;20387;-74
2023/05/20 10:50:34;;;;;;;13.07;11.87;;;;;;;19.88;100.00;96454.50;7397700;19;21016;-74
2023/05/20 10:53:04;;;;;;;14.10;11.73;;;;;;;18.99;100.00;96450.88;7396813;19;20954;-74
2023/05/20 10:55:36;;;;;;;17.73;11.80;;;;;;;18.74;100.00;96430.09;7400647;19;20359;-74
2023/05/20 10:58:04;;;;;;;14.23;12.80;;;;;;;18.94;100.00;96411.78;7399500;19;20372;-74
2023/05/20 11:00:36;;;;;;;12.67;11.63;;;;;;;19.00;100.00;96430.97;7398065;19;20386;-73
2023/05/20 11:03:05;;;;;;;11.33;10.23;;;;;;;19.57;100.00;96423.81;7397462;19;20917;-74
2023/05/20 11:05:32;;;;;;;12.80;11.60;;;;;;;19.71;100.00;96431.09;7399547;19;20733;-74
2023/05/20 11:08:03;;;;;;;10.60;9.70;;;;;;;19.57;100.00;96412.31;7398515;19;20398;-74
2023/05/20 11:10:46;;;;;;;11.10;10.20;;;;;;;19.79;100.00;96419.25;7400163;19;20426;-75
2023/05/20 11:13:15;;;;;;;12.10;11.00;;;;;;;19.85;100.00;96420.38;7398032;19;20401;-74
2023/05/20 11:15:43;;;;;;;11.83;10.83;;;;;;;19.88;100.00;96418.84;7396531;19;20401;-72
2023/05/20 11:18:11;;;;;;;11.10;10.20;;;;;;;20.09;100.00;96400.03;7398215;19;20345;-74
2023/05/20 11:20:38;;;;;;;10.43;9.63;;;;;;;19.69;100.00;96406.59;7398459;19;20726;-74